createdAt,value
2018-05-21T00:00:13.642Z,20.2
2018-05-21T00:01:03.737Z,20.2
2018-05-21T00:01:53.763Z,20.2
2018-05-21T00:02:43.260Z,20.2
2018-05-21T00:03:33.970Z,20.2
2018-05-21T00:04:23.960Z,20.2
2018-05-21T00:05:13.744Z,20.2
2018-05-21T00:06:03.813Z,20.2
2018-05-21T00:06:54.161Z,20.2
2018-05-21T00:07:43.642Z,20.2
2018-05-21T00:08:34.262Z,20.2
2018-05-21T00:09:24.341Z,20.2
2018-05-21T00:10:14.452Z,20.2
2018-05-21T00:11:04.463Z,20.2
2018-05-21T00:11:54.005Z,20.3
2018-05-21T00:12:44.571Z,20.2
2018-05-21T00:13:34.698Z,20.2
2018-05-21T00:14:24.703Z,20.2
2018-05-21T00:15:13.998Z,20.3
2018-05-21T00:16:04.563Z,20.2
2018-05-21T00:16:54.926Z,20.2
2018-05-21T00:17:44.965Z,20.2
2018-05-21T00:18:35.027Z,20.2
2018-05-21T00:19:24.831Z,20.3
2018-05-21T00:20:15.190Z,20.3
2018-05-21T00:21:05.233Z,20.2
2018-05-21T00:21:55.271Z,20.2
2018-05-21T00:22:45.475Z,20.2
2018-05-21T00:23:34.877Z,20.2
2018-05-21T00:24:25.528Z,20.2
2018-05-21T00:25:15.270Z,20.2
2018-05-21T00:26:04.777Z,20.2
2018-05-21T00:26:55.386Z,20.3
2018-05-21T00:27:45.480Z,20.2
2018-05-21T00:28:35.246Z,20.3
2018-05-21T00:29:25.391Z,20.3
2018-05-21T00:30:15.658Z,20.3
2018-05-21T00:31:05.694Z,20.2
2018-05-21T00:31:56.076Z,20.3
2018-05-21T00:32:45.273Z,20.2
2018-05-21T00:33:36.203Z,20.3
2018-05-21T00:34:26.453Z,20.3
2018-05-21T00:35:16.328Z,20.3
2018-05-21T00:36:06.421Z,20.3
2018-05-21T00:36:55.887Z,20.3
2018-05-21T00:37:46.543Z,20.3
2018-05-21T00:38:36.653Z,20.3
2018-05-21T00:39:26.346Z,20.3
2018-05-21T00:40:16.726Z,20.3
2018-05-21T00:41:06.469Z,20.3
2018-05-21T00:41:56.001Z,20.3
2018-05-21T00:42:46.611Z,20.3
2018-05-21T00:43:36.427Z,20.3
2018-05-21T00:44:27.077Z,20.2
2018-05-21T00:45:16.543Z,20.3
2018-05-21T00:46:06.899Z,20.3
2018-05-21T00:46:56.958Z,20.3
2018-05-21T00:47:47.001Z,20.3
2018-05-21T00:48:37.051Z,20.3
2018-05-21T00:49:27.139Z,20.3
2018-05-21T00:50:17.460Z,20.3
2018-05-21T00:51:07.241Z,20.3
2018-05-21T00:51:57.294Z,20.3
2018-05-21T00:52:47.358Z,20.3
2018-05-21T00:53:37.142Z,20.3
2018-05-21T00:54:27.504Z,20.3
2018-05-21T00:55:17.544Z,20.3
2018-05-21T00:56:07.602Z,20.3
2018-05-21T00:56:57.690Z,20.3
2018-05-21T00:57:48.026Z,20.3
2018-05-21T00:58:37.859Z,20.3
2018-05-21T00:59:28.203Z,20.3
2018-05-21T01:00:17.651Z,20.3
2018-05-21T01:01:08.046Z,20.3
2018-05-21T01:01:57.879Z,20.3
2018-05-21T01:02:48.452Z,20.3
2018-05-21T01:03:38.478Z,20.3
2018-05-21T01:04:28.599Z,20.3
2018-05-21T01:05:18.609Z,20.3
2018-05-21T01:06:08.683Z,20.3
2018-05-21T01:06:58.733Z,20.3
2018-05-21T01:07:48.522Z,20.3
2018-05-21T01:08:38.566Z,20.3
2018-05-21T01:09:28.641Z,20.3
2018-05-21T01:10:18.714Z,20.3
2018-05-21T01:11:09.051Z,20.3
2018-05-21T01:11:59.130Z,20.3
2018-05-21T01:12:48.943Z,20.3
2018-05-21T01:13:38.724Z,20.3
2018-05-21T01:14:29.052Z,20.3
2018-05-21T01:15:19.109Z,20.3
2018-05-21T01:16:09.177Z,20.3
2018-05-21T01:16:59.224Z,20.3
2018-05-21T01:17:49.024Z,20.3
2018-05-21T01:18:39.664Z,20.3
2018-05-21T01:19:29.427Z,20.3
2018-05-21T01:20:19.808Z,20.3
2018-05-21T01:21:08.993Z,20.3
2018-05-21T01:21:59.924Z,20.3
2018-05-21T01:22:49.484Z,20.3
2018-05-21T01:23:40.014Z,20.3
2018-05-21T01:24:30.096Z,20.3
2018-05-21T01:25:19.919Z,20.3
2018-05-21T01:26:10.538Z,20.3
2018-05-21T01:27:00.001Z,20.3
2018-05-21T01:27:50.406Z,20.3
2018-05-21T01:28:39.337Z,20.3
2018-05-21T01:29:30.474Z,20.3
2018-05-21T01:30:20.325Z,20.3
2018-05-21T01:31:10.670Z,20.3
2018-05-21T01:32:00.645Z,20.3
2018-05-21T01:32:50.185Z,20.3
2018-05-21T01:33:40.238Z,20.3
2018-05-21T01:34:30.574Z,20.3
2018-05-21T01:35:20.634Z,20.3
2018-05-21T01:36:11.043Z,20.3
2018-05-21T01:37:01.044Z,20.3
2018-05-21T01:37:50.838Z,20.3
2018-05-21T01:38:41.181Z,20.3
2018-05-21T01:39:30.959Z,20.3
2018-05-21T01:40:20.936Z,20.3
2018-05-21T01:41:11.073Z,20.3
2018-05-21T01:42:01.209Z,20.3
2018-05-21T01:42:51.507Z,20.3
2018-05-21T01:43:41.289Z,20.3
2018-05-21T01:44:31.328Z,20.3
2018-05-21T01:45:21.383Z,20.3
2018-05-21T01:46:11.479Z,20.3
2018-05-21T01:47:01.819Z,20.3
2018-05-21T01:47:51.576Z,20.3
2018-05-21T01:48:41.935Z,20.3
2018-05-21T01:49:32.016Z,20.3
2018-05-21T01:50:21.762Z,20.3
2018-05-21T01:51:11.893Z,20.3
2018-05-21T01:52:01.993Z,20.3
2018-05-21T01:52:51.723Z,20.3
2018-05-21T01:53:41.808Z,20.3
2018-05-21T01:54:32.098Z,20.3
2018-05-21T01:55:21.904Z,20.3
2018-05-21T01:56:12.543Z,20.3
2018-05-21T01:57:02.022Z,20.3
2018-05-21T01:57:52.632Z,20.3
2018-05-21T01:58:42.759Z,20.3
2018-05-21T01:59:32.776Z,20.3
2018-05-21T02:00:22.547Z,20.3
2018-05-21T02:01:12.898Z,20.3
2018-05-21T02:02:02.658Z,20.3
2018-05-21T02:02:52.474Z,20.3
2018-05-21T02:03:42.564Z,20.3
2018-05-21T02:04:32.902Z,20.3
2018-05-21T02:05:23.247Z,20.3
2018-05-21T02:06:13.304Z,20.3
2018-05-21T02:07:03.364Z,20.3
2018-05-21T02:07:53.437Z,20.3
2018-05-21T02:08:43.422Z,20.3
2018-05-21T02:09:33.583Z,20.3
2018-05-21T02:10:23.335Z,20.3
2018-05-21T02:11:13.673Z,20.3
2018-05-21T02:12:03.778Z,20.3
2018-05-21T02:12:53.565Z,20.3
2018-05-21T02:13:43.883Z,20.3
2018-05-21T02:14:33.915Z,20.3
2018-05-21T02:15:24.075Z,20.3
2018-05-21T02:16:14.073Z,20.3
2018-05-21T02:17:04.140Z,20.3
2018-05-21T02:17:54.210Z,20.3
2018-05-21T02:18:43.684Z,20.3
2018-05-21T02:19:34.057Z,20.3
2018-05-21T02:20:23.888Z,20.3
2018-05-21T02:21:13.330Z,20.3
2018-05-21T02:22:03.701Z,20.3
2018-05-21T02:22:54.022Z,20.4
2018-05-21T02:23:43.401Z,20.3
2018-05-21T02:24:33.883Z,20.3
2018-05-21T02:25:24.221Z,20.3
2018-05-21T02:26:13.991Z,20.4
2018-05-21T02:27:04.592Z,20.3
2018-05-21T02:27:54.671Z,20.3
2018-05-21T02:28:45.051Z,20.3
2018-05-21T02:29:34.519Z,20.3
2018-05-21T02:30:24.869Z,20.3
2018-05-21T02:31:15.226Z,20.3
2018-05-21T02:32:05.117Z,20.3
2018-05-21T02:32:55.091Z,20.3
2018-05-21T02:33:45.412Z,20.3
2018-05-21T02:34:34.945Z,20.3
2018-05-21T02:35:25.262Z,20.4
2018-05-21T02:36:15.033Z,20.4
2018-05-21T02:37:05.123Z,20.4
2018-05-21T02:37:55.492Z,20.4
2018-05-21T02:38:45.794Z,20.4
2018-05-21T02:39:35.588Z,20.3
2018-05-21T02:40:25.926Z,20.3
2018-05-21T02:41:15.416Z,20.3
2018-05-21T02:42:05.767Z,20.4
2018-05-21T02:42:56.111Z,20.4
2018-05-21T02:43:46.165Z,20.3
2018-05-21T02:44:36.250Z,20.3
2018-05-21T02:45:26.306Z,20.4
2018-05-21T02:46:16.366Z,20.4
2018-05-21T02:47:06.425Z,20.4
2018-05-21T02:47:56.245Z,20.4
2018-05-21T02:48:46.271Z,20.4
2018-05-21T02:49:35.776Z,20.3
2018-05-21T02:50:26.698Z,20.4
2018-05-21T02:51:16.477Z,20.4
2018-05-21T02:52:06.813Z,20.4
2018-05-21T02:52:56.644Z,20.4
2018-05-21T02:53:47.031Z,20.4
2018-05-21T02:54:36.443Z,20.4
2018-05-21T02:55:26.770Z,20.4
2018-05-21T02:56:16.286Z,20.4
2018-05-21T02:57:06.720Z,20.4
2018-05-21T02:57:56.698Z,20.4
2018-05-21T02:58:47.347Z,20.4
2018-05-21T02:59:36.830Z,20.4
2018-05-21T03:00:27.447Z,20.4
2018-05-21T03:01:17.225Z,20.4
2018-05-21T03:02:07.583Z,20.4
2018-05-21T03:02:57.710Z,20.4
2018-05-21T03:03:47.140Z,20.4
2018-05-21T03:04:37.223Z,20.4
2018-05-21T03:05:27.839Z,20.4
2018-05-21T03:06:17.337Z,20.4
2018-05-21T03:07:07.404Z,20.4
2018-05-21T03:07:57.189Z,20.4
2018-05-21T03:08:48.101Z,20.4
2018-05-21T03:09:37.859Z,20.4
2018-05-21T03:10:28.210Z,20.4
2018-05-21T03:11:18.000Z,20.4
2018-05-21T03:12:08.318Z,20.4
2018-05-21T03:12:58.132Z,20.4
2018-05-21T03:13:48.229Z,20.4
2018-05-21T03:14:38.294Z,20.4
2018-05-21T03:15:28.315Z,20.4
2018-05-21T03:16:17.553Z,20.4
2018-05-21T03:17:08.472Z,20.4
2018-05-21T03:17:58.776Z,20.4
2018-05-21T03:18:48.283Z,20.4
2018-05-21T03:19:38.733Z,20.4
2018-05-21T03:20:28.998Z,20.4
2018-05-21T03:21:19.138Z,20.4
2018-05-21T03:22:09.145Z,20.4
2018-05-21T03:22:58.888Z,20.4
2018-05-21T03:23:48.945Z,20.4
2018-05-21T03:24:39.292Z,20.4
2018-05-21T03:25:28.632Z,20.4
2018-05-21T03:26:19.416Z,20.4
2018-05-21T03:27:09.234Z,20.4
2018-05-21T03:27:58.982Z,20.4
2018-05-21T03:28:49.330Z,20.4
2018-05-21T03:29:39.411Z,20.4
2018-05-21T03:30:29.817Z,20.4
2018-05-21T03:31:19.530Z,20.4
2018-05-21T03:32:09.332Z,20.4
2018-05-21T03:32:59.661Z,20.4
2018-05-21T03:33:50.000Z,20.4
2018-05-21T03:34:40.377Z,20.4
2018-05-21T03:35:29.586Z,20.4
2018-05-21T03:36:19.919Z,20.4
2018-05-21T03:37:09.978Z,20.4
2018-05-21T03:38:00.074Z,20.4
2018-05-21T03:38:49.814Z,20.4
2018-05-21T03:39:40.159Z,20.4
2018-05-21T03:40:30.499Z,20.4
2018-05-21T03:41:20.575Z,20.4
2018-05-21T03:42:10.635Z,20.4
2018-05-21T03:43:00.761Z,20.4
2018-05-21T03:43:50.568Z,20.4
2018-05-21T03:44:40.552Z,20.4
2018-05-21T03:45:30.344Z,20.4
2018-05-21T03:46:20.461Z,20.4
2018-05-21T03:47:11.029Z,20.4
2018-05-21T03:48:01.098Z,20.4
2018-05-21T03:48:50.857Z,20.4
2018-05-21T03:49:41.245Z,20.4
2018-05-21T03:50:31.297Z,20.4
2018-05-21T03:51:21.148Z,20.4
2018-05-21T03:52:11.418Z,20.4
2018-05-21T03:53:01.227Z,20.4
2018-05-21T03:53:51.582Z,20.4
2018-05-21T03:54:41.614Z,20.4
2018-05-21T03:55:31.761Z,20.4
2018-05-21T03:56:21.716Z,20.4
2018-05-21T03:57:11.549Z,20.4
2018-05-21T03:58:01.856Z,20.4
2018-05-21T03:58:51.924Z,20.4
2018-05-21T03:59:41.997Z,20.4
2018-05-21T04:00:31.483Z,20.4
2018-05-21T04:01:21.266Z,20.4
2018-05-21T04:02:12.183Z,20.4
2018-05-21T04:03:02.258Z,20.4
2018-05-21T04:03:52.027Z,20.4
2018-05-21T04:04:41.818Z,20.4
2018-05-21T04:05:32.429Z,20.4
2018-05-21T04:06:22.597Z,20.4
2018-05-21T04:07:12.564Z,20.4
2018-05-21T04:08:02.623Z,20.4
2018-05-21T04:08:52.790Z,20.4
2018-05-21T04:09:42.196Z,20.4
2018-05-21T04:10:32.551Z,20.4
2018-05-21T04:11:22.316Z,20.4
2018-05-21T04:12:12.932Z,20.4
2018-05-21T04:13:02.711Z,20.4
2018-05-21T04:13:53.090Z,20.4
2018-05-21T04:14:43.145Z,20.4
2018-05-21T04:15:33.196Z,20.4
2018-05-21T04:16:23.263Z,20.4
2018-05-21T04:17:13.065Z,20.4
2018-05-21T04:18:03.395Z,20.4
2018-05-21T04:18:54.166Z,20.4
2018-05-21T04:19:43.252Z,20.4
2018-05-21T04:20:33.036Z,20.4
2018-05-21T04:21:23.377Z,20.4
2018-05-21T04:22:13.457Z,20.4
2018-05-21T04:23:03.478Z,20.4
2018-05-21T04:23:53.565Z,20.4
2018-05-21T04:24:43.610Z,20.4
2018-05-21T04:25:34.434Z,20.4
2018-05-21T04:26:24.054Z,20.4
2018-05-21T04:27:14.127Z,20.4
2018-05-21T04:28:04.178Z,20.4
2018-05-21T04:28:54.213Z,20.4
2018-05-21T04:29:43.815Z,20.4
2018-05-21T04:30:34.072Z,20.4
2018-05-21T04:31:24.154Z,20.4
2018-05-21T04:32:13.733Z,20.4
2018-05-21T04:33:04.047Z,20.4
2018-05-21T04:33:53.281Z,20.4
2018-05-21T04:34:44.196Z,20.4
2018-05-21T04:35:34.188Z,20.5
2018-05-21T04:36:24.700Z,20.4
2018-05-21T04:37:14.099Z,20.5
2018-05-21T04:38:04.456Z,20.5
2018-05-21T04:38:54.496Z,20.4
2018-05-21T04:39:44.304Z,20.5
2018-05-21T04:40:34.079Z,20.5
2018-05-21T04:41:24.679Z,20.5
2018-05-21T04:42:14.767Z,20.4
2018-05-21T04:43:04.884Z,20.4
2018-05-21T04:43:54.906Z,20.4
2018-05-21T04:44:44.684Z,20.5
2018-05-21T04:45:35.035Z,20.4
2018-05-21T04:46:24.808Z,20.5
2018-05-21T04:47:14.303Z,20.4
2018-05-21T04:48:04.950Z,20.5
2018-05-21T04:48:55.011Z,20.5
2018-05-21T04:49:45.330Z,20.5
2018-05-21T04:50:34.910Z,20.5
2018-05-21T04:51:24.691Z,20.4
2018-05-21T04:52:15.040Z,20.4
2018-05-21T04:53:04.840Z,20.4
2018-05-21T04:53:54.635Z,20.4
2018-05-21T04:54:44.980Z,20.4
2018-05-21T04:55:35.773Z,20.4
2018-05-21T04:56:25.872Z,20.5
2018-05-21T04:57:16.004Z,20.4
2018-05-21T04:58:05.710Z,20.4
2018-05-21T04:58:55.742Z,20.5
2018-05-21T04:59:46.097Z,20.5
2018-05-21T05:00:35.877Z,20.5
2018-05-21T05:01:26.452Z,20.5
2018-05-21T05:02:16.035Z,20.5
2018-05-21T05:03:06.011Z,20.5
2018-05-21T05:03:56.425Z,20.5
2018-05-21T05:04:46.696Z,20.5
2018-05-21T05:05:37.057Z,20.5
2018-05-21T05:06:26.614Z,20.5
2018-05-21T05:07:16.876Z,20.5
2018-05-21T05:08:07.216Z,20.5
2018-05-21T05:08:56.994Z,20.5
2018-05-21T05:09:47.048Z,20.5
2018-05-21T05:10:37.404Z,20.5
2018-05-21T05:11:27.265Z,20.5
2018-05-21T05:12:17.272Z,20.5
2018-05-21T05:13:07.030Z,20.5
2018-05-21T05:13:57.360Z,20.5
2018-05-21T05:14:47.729Z,20.5
2018-05-21T05:15:37.876Z,20.5
2018-05-21T05:16:27.858Z,20.5
2018-05-21T05:17:17.921Z,20.5
2018-05-21T05:18:08.003Z,20.5
2018-05-21T05:18:56.924Z,20.6
2018-05-21T05:19:46.708Z,20.6
2018-05-21T05:20:37.618Z,20.6
2018-05-21T05:21:28.338Z,20.6
2018-05-21T05:22:18.321Z,20.6
2018-05-21T05:23:08.097Z,20.6
2018-05-21T05:23:57.948Z,20.7
2018-05-21T05:24:48.512Z,20.7
2018-05-21T05:25:38.268Z,20.7
2018-05-21T05:26:28.595Z,20.7
2018-05-21T05:27:18.135Z,20.7
2018-05-21T05:28:07.894Z,20.8
2018-05-21T05:28:58.536Z,20.7
2018-05-21T05:29:48.316Z,20.7
2018-05-21T05:30:38.962Z,20.7
2018-05-21T05:31:28.431Z,20.7
2018-05-21T05:32:18.819Z,20
2018-05-21T05:33:08.895Z,20.1
2018-05-21T05:33:58.997Z,21.3
2018-05-21T05:34:49.238Z,24.4
2018-05-21T05:35:39.303Z,25.3
2018-05-21T05:36:29.374Z,24.6
2018-05-21T05:37:19.418Z,23.6
2018-05-21T05:38:09.220Z,23
2018-05-21T05:38:59.581Z,23.1
2018-05-21T05:39:49.078Z,23.4
2018-05-21T05:40:39.693Z,23.8
2018-05-21T05:41:28.912Z,24.1
2018-05-21T05:42:19.803Z,24.1
2018-05-21T05:43:09.889Z,24.1
2018-05-21T05:43:59.947Z,24
2018-05-21T05:44:49.984Z,24.1
2018-05-21T05:45:40.066Z,24.2
2018-05-21T05:46:29.832Z,24.3
2018-05-21T05:47:19.711Z,24.4
2018-05-21T05:48:10.271Z,24.5
2018-05-21T05:49:00.362Z,24.6
2018-05-21T05:49:50.364Z,24.7
2018-05-21T05:50:40.192Z,24.8
2018-05-21T05:51:29.943Z,24.9
2018-05-21T05:52:20.579Z,25
2018-05-21T05:53:10.367Z,25.3
2018-05-21T05:54:00.712Z,25.4
2018-05-21T05:54:50.529Z,25.6
2018-05-21T05:55:40.822Z,25.8
2018-05-21T05:56:30.615Z,25.9
2018-05-21T05:57:20.667Z,26
2018-05-21T05:58:10.809Z,26.1
2018-05-21T05:59:01.085Z,26
2018-05-21T05:59:50.867Z,25.9
2018-05-21T06:00:41.191Z,25.9
2018-05-21T06:01:31.246Z,25.9
2018-05-21T06:02:21.335Z,25.9
2018-05-21T06:03:10.843Z,25.8
2018-05-21T06:04:01.444Z,25.9
2018-05-21T06:04:51.234Z,25.9
2018-05-21T06:05:41.573Z,25.9
2018-05-21T06:06:31.146Z,25.9
2018-05-21T06:07:21.303Z,25.9
2018-05-21T06:08:11.776Z,25.9
2018-05-21T06:09:01.380Z,25.9
2018-05-21T06:09:51.475Z,25.9
2018-05-21T06:10:41.458Z,25.9
2018-05-21T06:11:30.755Z,25.9
2018-05-21T06:12:21.604Z,25.9
2018-05-21T06:13:11.660Z,25.9
2018-05-21T06:14:01.168Z,26
2018-05-21T06:14:52.266Z,26
2018-05-21T06:15:42.323Z,26.1
2018-05-21T06:16:32.391Z,26.1
2018-05-21T06:17:22.470Z,26.3
2018-05-21T06:18:12.257Z,26.3
2018-05-21T06:19:02.606Z,26.4
2018-05-21T06:19:52.365Z,26.5
2018-05-21T06:20:42.720Z,26.6
2018-05-21T06:21:32.496Z,26.7
2018-05-21T06:22:22.268Z,26.8
2018-05-21T06:23:12.637Z,26.9
2018-05-21T06:24:02.530Z,27.1
2018-05-21T06:24:53.028Z,27.3
2018-05-21T06:25:43.107Z,27.5
2018-05-21T06:26:32.598Z,27.6
2018-05-21T06:27:23.034Z,27.7
2018-05-21T06:29:03.384Z,28
2018-05-21T06:29:52.876Z,28.2
2018-05-21T06:30:42.930Z,28.4
2018-05-21T06:31:33.532Z,28.5
2018-05-21T06:32:23.599Z,28.7
2018-05-21T06:33:13.390Z,28.9
2018-05-21T06:34:04.910Z,29
2018-05-21T06:34:53.786Z,29.2
2018-05-21T06:35:43.845Z,29.3
2018-05-21T06:36:33.932Z,29.4
2018-05-21T06:37:23.988Z,29.5
2018-05-21T06:38:14.059Z,29.7
2018-05-21T06:39:03.656Z,29.9
2018-05-21T06:39:53.890Z,29.9
2018-05-21T06:40:43.695Z,30
2018-05-21T06:41:34.027Z,30
2018-05-21T06:42:24.104Z,30.1
2018-05-21T06:43:14.442Z,30.1
2018-05-21T06:44:04.510Z,30.1
2018-05-21T06:44:54.290Z,30.2
2018-05-21T06:45:44.634Z,30.3
2018-05-21T06:46:34.454Z,30.3
2018-05-21T06:47:23.915Z,30.4
2018-05-21T06:48:14.532Z,30.6
2018-05-21T06:49:04.291Z,30.6
2018-05-21T06:49:54.660Z,30.7
2018-05-21T06:50:44.706Z,30.8
2018-05-21T06:51:35.053Z,30.8
2018-05-21T06:52:24.851Z,30.8
2018-05-21T06:53:14.361Z,30.9
2018-05-21T06:54:04.972Z,30.9
2018-05-21T06:54:55.044Z,30.9
2018-05-21T06:55:44.823Z,31
2018-05-21T06:56:35.425Z,31.1
2018-05-21T06:57:25.295Z,31.2
2018-05-21T06:58:15.576Z,31.3
2018-05-21T06:59:05.627Z,31.3
2018-05-21T06:59:55.684Z,31.5
2018-05-21T07:00:45.464Z,31.6
2018-05-21T07:01:35.538Z,31.7
2018-05-21T07:02:25.327Z,31.8
2018-05-21T07:03:15.677Z,31.8
2018-05-21T07:04:06.029Z,31.9
2018-05-21T07:04:56.053Z,31.9
2018-05-21T07:05:45.577Z,31.9
2018-05-21T07:06:36.175Z,32
2018-05-21T07:07:26.273Z,32.1
2018-05-21T07:08:16.043Z,32.1
2018-05-21T07:09:06.479Z,32.1
2018-05-21T07:09:56.158Z,32.2
2018-05-21T07:10:46.589Z,32.3
2018-05-21T07:11:36.348Z,32.3
2018-05-21T07:12:26.431Z,32.4
2018-05-21T07:13:16.408Z,32.4
2018-05-21T07:14:06.210Z,32.6
2018-05-21T07:14:56.840Z,32.7
2018-05-21T07:15:46.620Z,32.8
2018-05-21T07:16:36.945Z,32.9
2018-05-21T07:17:27.023Z,32.9
2018-05-21T07:18:17.547Z,33
2018-05-21T07:19:07.175Z,33.1
2018-05-21T07:19:56.649Z,33.1
2018-05-21T07:20:47.285Z,33.2
2018-05-21T07:21:37.073Z,33.3
2018-05-21T07:22:27.143Z,33.4
2018-05-21T07:23:17.490Z,33.5
2018-05-21T07:24:07.537Z,33.6
2018-05-21T07:24:57.056Z,33.6
2018-05-21T07:25:47.107Z,33.8
2018-05-21T07:26:37.160Z,33.9
2018-05-21T07:27:27.804Z,34
2018-05-21T07:28:17.609Z,34.1
2018-05-21T07:29:07.345Z,34.3
2018-05-21T07:29:57.981Z,34.4
2018-05-21T07:30:47.749Z,34.4
2018-05-21T07:31:38.529Z,34.6
2018-05-21T07:32:27.620Z,34.7
2018-05-21T07:33:18.264Z,34.7
2018-05-21T07:34:08.013Z,34.7
2018-05-21T07:34:58.349Z,34.6
2018-05-21T07:35:48.165Z,34.6
2018-05-21T07:36:38.489Z,34.6
2018-05-21T07:37:28.564Z,34.6
2018-05-21T07:38:18.602Z,34.7
2018-05-21T07:39:08.392Z,34.7
2018-05-21T07:39:58.717Z,34.7
2018-05-21T07:40:48.832Z,34.7
2018-05-21T07:41:38.848Z,34.7
2018-05-21T07:42:28.942Z,34.7
2018-05-21T07:43:18.696Z,34.8
2018-05-21T07:44:09.066Z,34.8
2018-05-21T07:44:59.399Z,34.8
2018-05-21T07:45:48.351Z,34.8
2018-05-21T07:46:39.235Z,34.9
2018-05-21T07:47:28.751Z,34.9
2018-05-21T07:48:19.359Z,34.9
2018-05-21T07:49:09.434Z,34.9
2018-05-21T07:49:59.207Z,34.9
2018-05-21T07:50:49.540Z,35.1
2018-05-21T07:51:40.465Z,35.1
2018-05-21T07:52:29.685Z,35.2
2018-05-21T07:53:19.744Z,35.2
2018-05-21T07:54:09.553Z,35.3
2018-05-21T07:54:59.589Z,35.4
2018-05-21T07:55:49.935Z,35.4
2018-05-21T07:56:39.446Z,35.4
2018-05-21T07:57:30.061Z,35.4
2018-05-21T07:58:20.905Z,35.4
2018-05-21T07:59:09.926Z,35.4
2018-05-21T08:00:00.276Z,35.5
2018-05-21T08:00:50.315Z,35.6
2018-05-21T08:01:40.355Z,35.6
2018-05-21T08:02:30.162Z,35.6
2018-05-21T08:03:20.505Z,35.6
2018-05-21T08:04:10.634Z,35.7
2018-05-21T08:05:00.614Z,35.7
2018-05-21T08:05:50.112Z,35.7
2018-05-21T08:06:40.782Z,35.7
2018-05-21T08:07:30.524Z,35.8
2018-05-21T08:08:20.023Z,35.8
2018-05-21T08:09:10.684Z,35.8
2018-05-21T08:10:00.754Z,35.9
2018-05-21T08:10:50.831Z,35.9
2018-05-21T08:11:41.157Z,35.9
2018-05-21T08:12:31.191Z,35.9
2018-05-21T08:13:20.999Z,35.9
2018-05-21T08:14:11.075Z,35.8
2018-05-21T08:15:01.406Z,35.8
2018-05-21T08:15:51.482Z,35.8
2018-05-21T08:16:41.640Z,35.8
2018-05-21T08:17:31.386Z,35.8
2018-05-21T08:18:21.658Z,35.8
2018-05-21T08:19:11.699Z,35.8
2018-05-21T08:20:01.487Z,35.8
2018-05-21T08:20:51.834Z,35.8
2018-05-21T08:21:41.883Z,35.8
2018-05-21T08:22:31.973Z,35.7
2018-05-21T08:23:21.735Z,35.7
2018-05-21T08:24:11.830Z,35.7
2018-05-21T08:25:01.869Z,35.6
2018-05-21T08:25:52.212Z,35.6
2018-05-21T08:26:41.758Z,35.6
2018-05-21T08:27:32.363Z,35.6
2018-05-21T08:28:22.153Z,35.5
2018-05-21T08:29:12.489Z,35.5
2018-05-21T08:30:02.286Z,35.4
2018-05-21T08:30:52.610Z,35.4
2018-05-21T08:31:42.666Z,35.4
2018-05-21T08:32:32.734Z,35.4
2018-05-21T08:33:22.506Z,35.3
2018-05-21T08:34:12.863Z,35.3
2018-05-21T08:35:02.358Z,35.3
2018-05-21T08:35:52.129Z,35.2
2018-05-21T08:36:42.497Z,35.2
2018-05-21T08:37:32.535Z,35.2
2018-05-21T08:38:23.153Z,35.1
2018-05-21T08:39:13.263Z,35.1
2018-05-21T08:40:03.026Z,35.1
2018-05-21T08:40:53.075Z,35
2018-05-21T08:41:43.402Z,34.9
2018-05-21T08:42:33.217Z,34.9
2018-05-21T08:43:23.600Z,34.9
2018-05-21T08:44:12.781Z,34.9
2018-05-21T08:45:03.377Z,34.9
2018-05-21T08:45:53.747Z,34.9
2018-05-21T08:46:43.067Z,34.8
2018-05-21T08:47:33.343Z,34.8
2018-05-21T08:48:23.561Z,34.8
2018-05-21T08:49:13.150Z,34.8
2018-05-21T08:50:04.072Z,34.8
2018-05-21T08:50:53.633Z,34.8
2018-05-21T08:51:43.638Z,34.7
2018-05-21T08:52:33.665Z,34.7
2018-05-21T08:53:24.039Z,34.7
2018-05-21T08:54:14.362Z,34.6
2018-05-21T08:55:04.602Z,34.6
2018-05-21T08:55:54.514Z,34.5
2018-05-21T08:56:44.786Z,34.5
2018-05-21T08:57:34.366Z,34.4
2018-05-21T08:58:24.417Z,34.4
2018-05-21T08:59:14.739Z,34.3
2018-05-21T09:00:04.916Z,34.3
2018-05-21T09:00:54.858Z,34.3
2018-05-21T09:01:44.364Z,34.3
2018-05-21T09:02:34.981Z,34.3
2018-05-21T09:03:24.512Z,34.2
2018-05-21T09:04:14.573Z,34.2
2018-05-21T09:05:05.205Z,34.2
2018-05-21T09:05:55.257Z,34.1
2018-05-21T09:06:45.295Z,34.1
2018-05-21T09:07:35.099Z,34.1
2018-05-21T09:08:24.604Z,34.1
2018-05-21T09:09:15.495Z,34.1
2018-05-21T09:10:05.627Z,34.1
2018-05-21T09:10:55.355Z,34.1
2018-05-21T09:11:44.969Z,34.1
2018-05-21T09:12:35.341Z,34.1
2018-05-21T09:13:25.276Z,34.1
2018-05-21T09:14:15.893Z,34.1
2018-05-21T09:15:05.772Z,34.1
2018-05-21T09:15:55.766Z,34.1
2018-05-21T09:16:46.305Z,34.1
2018-05-21T09:17:35.856Z,34.1
2018-05-21T09:18:26.198Z,34.1
2018-05-21T09:19:16.281Z,34.1
2018-05-21T09:20:06.031Z,34.1
2018-05-21T09:20:56.108Z,34.1
2018-05-21T09:21:45.908Z,34.1
2018-05-21T09:22:36.984Z,34.1
2018-05-21T09:23:26.570Z,34.1
2018-05-21T09:24:16.059Z,34.1
2018-05-21T09:25:06.694Z,34.1
2018-05-21T09:25:56.843Z,34.1
2018-05-21T09:26:46.279Z,34.1
2018-05-21T09:27:36.335Z,34.1
2018-05-21T09:28:26.160Z,34.1
2018-05-21T09:29:17.033Z,34.1
2018-05-21T09:30:07.153Z,34.1
2018-05-21T09:30:57.155Z,34.1
2018-05-21T09:31:47.214Z,34.1
2018-05-21T09:32:37.003Z,34.1
2018-05-21T09:33:26.789Z,34.1
2018-05-21T09:34:16.470Z,34.1
2018-05-21T09:35:06.496Z,34.1
2018-05-21T09:35:57.267Z,34.1
2018-05-21T09:36:47.132Z,34.2
2018-05-21T09:37:36.789Z,34.2
2018-05-21T09:38:26.903Z,34.2
2018-05-21T09:39:17.767Z,34.2
2018-05-21T09:40:07.882Z,34.2
2018-05-21T09:40:57.915Z,34.3
2018-05-21T09:41:47.707Z,34.3
2018-05-21T09:42:37.486Z,34.3
2018-05-21T09:43:27.838Z,34.3
2018-05-21T09:44:18.167Z,34.3
2018-05-21T09:45:08.289Z,34.3
2018-05-21T09:45:58.291Z,34.3
2018-05-21T09:46:48.053Z,34.3
2018-05-21T09:47:38.415Z,34.3
2018-05-21T09:48:27.937Z,34.3
2018-05-21T09:49:18.525Z,34.3
2018-05-21T09:50:08.350Z,34.3
2018-05-21T09:50:58.679Z,34.3
2018-05-21T09:51:48.450Z,34.3
2018-05-21T09:52:38.353Z,34.3
2018-05-21T09:53:28.580Z,34.3
2018-05-21T09:54:18.683Z,34.3
2018-05-21T09:55:08.981Z,34.3
2018-05-21T09:55:59.062Z,34.3
2018-05-21T09:56:48.860Z,34.3
2018-05-21T09:57:39.182Z,34.3
2018-05-21T09:58:29.260Z,34.3
2018-05-21T09:59:19.319Z,34.3
2018-05-21T10:00:09.373Z,34.2
2018-05-21T10:00:59.461Z,34.2
2018-05-21T10:01:49.595Z,34.2
2018-05-21T10:02:39.030Z,34.2
2018-05-21T10:03:29.330Z,34.1
2018-05-21T10:04:19.757Z,34.1
2018-05-21T10:05:09.758Z,34.1
2018-05-21T10:05:59.812Z,34.1
2018-05-21T10:06:49.860Z,34.1
2018-05-21T10:07:39.374Z,34
2018-05-21T10:08:29.712Z,34
2018-05-21T10:09:19.801Z,33.9
2018-05-21T10:10:09.950Z,33.9
2018-05-21T10:11:00.191Z,34
2018-05-21T10:11:49.955Z,34
2018-05-21T10:12:40.040Z,34
2018-05-21T10:13:30.378Z,34
2018-05-21T10:14:20.513Z,34
2018-05-21T10:15:10.502Z,34
2018-05-21T10:16:00.577Z,34
2018-05-21T10:16:50.639Z,34
2018-05-21T10:17:40.432Z,33.9
2018-05-21T10:18:30.763Z,33.9
2018-05-21T10:19:21.119Z,33.9
2018-05-21T10:20:10.603Z,33.9
2018-05-21T10:21:00.926Z,33.9
2018-05-21T10:21:50.761Z,33.9
2018-05-21T10:22:41.066Z,33.9
2018-05-21T10:23:31.168Z,33.9
2018-05-21T10:24:21.190Z,33.9
2018-05-21T10:25:11.244Z,33.8
2018-05-21T10:26:02.111Z,33.8
2018-05-21T10:26:51.126Z,33.8
2018-05-21T10:27:41.459Z,33.8
2018-05-21T10:28:31.315Z,33.8
2018-05-21T10:29:21.285Z,33.8
2018-05-21T10:30:11.641Z,33.8
2018-05-21T10:31:01.696Z,33.7
2018-05-21T10:31:51.765Z,33.7
2018-05-21T10:32:41.831Z,33.7
2018-05-21T10:33:31.867Z,33.7
2018-05-21T10:34:21.670Z,33.7
2018-05-21T10:35:11.746Z,33.6
2018-05-21T10:36:02.077Z,33.6
2018-05-21T10:36:52.144Z,33.6
2018-05-21T10:37:42.229Z,33.6
2018-05-21T10:38:32.293Z,33.6
2018-05-21T10:39:22.063Z,33.6
2018-05-21T10:40:12.132Z,33.6
2018-05-21T10:41:02.185Z,33.6
2018-05-21T10:41:52.531Z,33.6
2018-05-21T10:42:42.016Z,33.6
2018-05-21T10:43:32.076Z,33.6
2018-05-21T10:44:22.786Z,33.6
2018-05-21T10:45:12.782Z,33.7
2018-05-21T10:46:02.575Z,33.7
2018-05-21T10:46:51.795Z,33.7
2018-05-21T10:47:42.703Z,33.7
2018-05-21T10:48:32.838Z,33.7
2018-05-21T10:49:23.085Z,33.8
2018-05-21T10:50:13.196Z,33.8
2018-05-21T10:51:02.658Z,33.8
2018-05-21T10:51:53.490Z,33.8
2018-05-21T10:52:42.816Z,33.8
2018-05-21T10:53:33.398Z,33.8
2018-05-21T10:54:23.704Z,33.8
2018-05-21T10:55:13.598Z,33.8
2018-05-21T10:56:03.311Z,33.8
2018-05-21T10:56:53.612Z,33.8
2018-05-21T10:57:44.666Z,33.8
2018-05-21T10:58:33.800Z,33.8
2018-05-21T10:59:24.037Z,33.8
2018-05-21T11:00:14.085Z,33.8
2018-05-21T11:01:03.430Z,33.8
2018-05-21T11:01:54.467Z,33.8
2018-05-21T11:02:43.826Z,33.8
2018-05-21T11:03:34.166Z,33.8
2018-05-21T11:04:24.213Z,33.8
2018-05-21T11:05:14.025Z,33.8
2018-05-21T11:06:03.524Z,33.8
2018-05-21T11:06:54.140Z,33.8
2018-05-21T11:07:44.202Z,33.8
2018-05-21T11:08:34.251Z,33.9